»·PEaware :: N172GW KBUR-KFUL

N172GW :: KBUR-KFUL

FLIGHT INFORMATION

Flight Status: Arrived
Operator: Privately registered:
United States
More flights under this callsign
Pilot: Victor C. (32144)
Aircraft: MOONEY M-20 201 202 205 220 ATS MSE
(M20P)
More flights by this aircraft type
Origin: KBUR Bob Hope-Burbank
United States
Destination: KFUL Fullerton Mun
United States
More flights between these airports :: More routes between these airports
Route: VPLRB KEMT
File this flight plan on PilotEdge
Remarks: CAT 9
Altitude:
(Current/Filed)
2,900ft
Speed:
(Current/Filed)
120kts
Departed: 28-Dec-20 11:06 AM
Arrived: 28-Dec-20 12:37 PM
Distance/Time
Traveled:
27nm/1:31
Distance/Time
To Go:
Arrived

Flight Plot

Page will automatically refresh every two minutes.

Flight plan parsing failed; only flown route is shown


Map Options




Map Legend


Flown Route
Filed Route
Departure Airport
Arrival Airport
Navaid (VOR, NDB)
Fix

Horizontal Profiles

Position Reports

Time Latitude Longitude Heading Altitude Ground
Speed
28-Dec-20 10:50 34.199463 -118.359694 0 736ft 0kts
28-Dec-20 10:51 34.199463 -118.359694 0 736ft 0kts
28-Dec-20 10:52 34.199463 -118.359694 0 736ft 0kts
28-Dec-20 10:53 34.199463 -118.359694 0 736ft 0kts
28-Dec-20 10:53 34.199463 -118.359694 0 736ft 0kts
28-Dec-20 10:55 34.199463 -118.359694 0 736ft 0kts
28-Dec-20 10:55 34.199480 -118.360008 255 736ft 3kts
28-Dec-20 10:57 34.198918 -118.362631 272 736ft 11kts
28-Dec-20 10:57 34.198929 -118.364023 261 736ft 7kts
28-Dec-20 10:58 34.199131 -118.368442 269 736ft 12kts
28-Dec-20 11:00 34.198810 -118.369071 105 736ft 0kts
28-Dec-20 11:00 34.198810 -118.369071 105 736ft 0kts
28-Dec-20 11:01 34.198810 -118.369071 105 736ft 0kts
28-Dec-20 11:02 34.198806 -118.369050 105 736ft 1kts
28-Dec-20 11:03 34.198688 -118.368991 184 736ft 0kts
28-Dec-20 11:04 34.198397 -118.369002 179 736ft 9kts
28-Dec-20 11:05 34.197997 -118.354427 90 1023ft 91kts
28-Dec-20 11:06 34.196532 -118.325621 107 2007ft 67kts
28-Dec-20 11:07 34.188810 -118.297891 111 2542ft 113kts
28-Dec-20 11:08 34.176897 -118.255387 109 2430ft 144kts
28-Dec-20 11:17 34.199463 -118.359694 0 736ft 0kts
28-Dec-20 11:18 34.199463 -118.359694 0 736ft 0kts
28-Dec-20 11:19 34.199463 -118.359694 0 736ft 0kts
28-Dec-20 11:20 34.199463 -118.359694 0 736ft 0kts
28-Dec-20 11:21 34.199463 -118.359694 0 736ft 0kts
28-Dec-20 11:22 34.199463 -118.359694 0 736ft 0kts
28-Dec-20 11:23 34.199463 -118.359694 0 736ft 0kts
28-Dec-20 11:24 34.199463 -118.359694 0 736ft 0kts
28-Dec-20 11:25 34.199463 -118.359694 0 736ft 0kts
28-Dec-20 11:26 34.199463 -118.359695 0 736ft 0kts
28-Dec-20 11:27 34.199463 -118.359695 0 736ft 0kts
28-Dec-20 11:28 34.199463 -118.359694 0 736ft 0kts
28-Dec-20 11:29 34.199463 -118.359695 0 736ft 0kts
28-Dec-20 11:30 34.199463 -118.359694 0 736ft 0kts
28-Dec-20 11:31 34.199463 -118.359694 0 736ft 0kts
28-Dec-20 11:32 34.199463 -118.359694 0 736ft 0kts
28-Dec-20 11:33 34.199463 -118.359694 0 736ft 0kts
28-Dec-20 11:34 34.199463 -118.359694 0 736ft 0kts
28-Dec-20 11:35 34.199463 -118.359694 0 736ft 0kts
28-Dec-20 11:36 34.199463 -118.359695 0 736ft 0kts
28-Dec-20 11:37 34.199463 -118.359695 0 736ft 0kts
28-Dec-20 11:38 34.199463 -118.359695 0 736ft 0kts
28-Dec-20 11:39 34.199463 -118.359695 0 736ft 0kts
28-Dec-20 11:40 34.199463 -118.359695 0 736ft 0kts
28-Dec-20 11:41 34.199463 -118.359695 0 736ft 0kts
28-Dec-20 11:42 34.199463 -118.359695 0 736ft 0kts
28-Dec-20 11:43 34.199463 -118.359695 0 736ft 0kts
28-Dec-20 11:44 34.199463 -118.359695 0 736ft 0kts
28-Dec-20 11:45 34.199463 -118.359695 0 736ft 0kts
28-Dec-20 11:46 34.199463 -118.359695 0 736ft 0kts
28-Dec-20 11:47 34.199463 -118.359695 0 736ft 0kts
28-Dec-20 11:48 34.199463 -118.359695 0 736ft 0kts
28-Dec-20 11:49 34.199463 -118.359695 0 736ft 0kts
28-Dec-20 11:50 34.199463 -118.359694 0 736ft 0kts
28-Dec-20 11:51 34.199463 -118.359694 0 736ft 0kts
28-Dec-20 11:52 34.199463 -118.359694 0 736ft 0kts
28-Dec-20 11:53 34.199463 -118.359694 0 736ft 0kts
28-Dec-20 11:54 34.199463 -118.359694 0 736ft 0kts
28-Dec-20 11:55 34.199463 -118.359694 0 736ft 0kts
28-Dec-20 11:56 34.199463 -118.359694 0 736ft 0kts
28-Dec-20 11:57 34.199463 -118.359694 0 736ft 0kts
28-Dec-20 11:58 34.199463 -118.359694 0 736ft 0kts
28-Dec-20 12:00 34.199463 -118.359694 0 736ft 0kts
28-Dec-20 12:01 34.199463 -118.359694 0 736ft 0kts
28-Dec-20 12:02 34.199463 -118.359694 0 736ft 0kts
28-Dec-20 12:03 34.198917 -118.360688 268 736ft 7kts
28-Dec-20 12:04 34.199029 -118.364350 282 736ft 15kts
28-Dec-20 12:05 34.199098 -118.368869 205 736ft 5kts
28-Dec-20 12:06 34.199026 -118.368857 153 736ft 0kts
28-Dec-20 12:07 34.199026 -118.368857 153 736ft 0kts
28-Dec-20 12:08 34.199026 -118.368857 153 736ft 0kts
28-Dec-20 12:09 34.199026 -118.368857 154 736ft 0kts
28-Dec-20 12:10 34.198722 -118.368991 186 736ft 0kts
28-Dec-20 12:11 34.198722 -118.368991 186 736ft 0kts
28-Dec-20 12:12 34.197826 -118.362896 90 735ft 84kts
28-Dec-20 12:13 34.198480 -118.328456 89 1550ft 133kts
28-Dec-20 12:14 34.186226 -118.288686 123 1797ft 116kts
28-Dec-20 12:15 34.173726 -118.256206 106 2300ft 103kts
28-Dec-20 12:16 34.167213 -118.223338 104 2872ft 98kts
28-Dec-20 12:17 34.160336 -118.193458 102 3486ft 99kts
28-Dec-20 12:18 34.151826 -118.153660 130 3229ft 110kts
28-Dec-20 12:19 34.130013 -118.125687 132 3104ft 139kts
28-Dec-20 12:20 34.109301 -118.095559 129 3630ft 113kts
28-Dec-20 12:21 34.087634 -118.062611 130 3560ft 134kts
28-Dec-20 12:22 34.063944 -118.026849 130 3503ft 136kts
28-Dec-20 12:24 34.034498 -118.001415 152 3493ft 128kts
28-Dec-20 12:25 34.003743 -117.986326 162 3495ft 117kts
28-Dec-20 12:26 33.974309 -117.973609 162 3500ft 115kts
28-Dec-20 12:27 33.947009 -117.961596 164 3356ft 128kts
28-Dec-20 12:28 33.923062 -117.975688 232 2268ft 115kts
28-Dec-20 12:29 33.905480 -117.989576 161 1237ft 101kts
28-Dec-20 12:30 33.883731 -117.972260 128 668ft 93kts
28-Dec-20 12:31 33.883011 -117.947693 63 516ft 67kts
28-Dec-20 12:32 33.880733 -117.926284 84 819ft 82kts
28-Dec-20 12:33 33.868841 -117.910633 94 1337ft 73kts
28-Dec-20 12:34 33.882551 -117.920034 269 1113ft 89kts
28-Dec-20 12:35 33.878984 -117.944875 260 896ft 80kts
28-Dec-20 12:36 33.874590 -117.966604 254 370ft 76kts
28-Dec-20 12:37 33.871454 -117.981202 164 90ft 4kts
28-Dec-20 12:38 33.871320 -117.981156 166 90ft 5kts
28-Dec-20 12:38 33.870712 -117.980393 52 92ft 1kts
28-Dec-20 12:40 33.870873 -117.980217 75 92ft 0kts
28-Dec-20 12:40 33.870873 -117.980217 75 92ft 0kts

Navigation Log

Ident Type
Flight plan parsing failed, navigation log unavailable